createdAt,value
2022-10-16T00:02:00.615Z,2.60
2022-10-16T00:04:30.196Z,2.95
2022-10-16T00:06:59.722Z,2.80
2022-10-16T00:09:31.807Z,2.95
2022-10-16T00:12:01.410Z,3.00
2022-10-16T00:14:31.069Z,2.60
2022-10-16T00:17:00.639Z,2.80
2022-10-16T00:19:30.263Z,2.75
2022-10-16T00:21:59.868Z,2.60
2022-10-16T00:24:32.331Z,2.53
2022-10-16T00:27:01.901Z,2.30
2022-10-16T00:29:31.492Z,2.40
2022-10-16T00:32:01.021Z,2.00
2022-10-16T00:34:30.598Z,2.20
2022-10-16T00:37:00.167Z,2.45
2022-10-16T00:39:32.318Z,2.17
2022-10-16T00:42:01.903Z,1.95
2022-10-16T00:44:50.852Z,2.00
2022-10-16T00:47:23.850Z,2.00
2022-10-16T00:49:55.746Z,2.03
2022-10-16T00:52:25.559Z,2.13
2022-10-16T00:54:58.392Z,2.00
2022-10-16T00:57:28.111Z,2.08
2022-10-16T00:59:57.803Z,2.50
2022-10-16T01:02:27.710Z,2.40
2022-10-16T01:04:58.061Z,1.80
2022-10-16T01:07:34.592Z,2.10
2022-10-16T01:10:17.835Z,2.10
2022-10-16T01:12:51.232Z,1.73
2022-10-16T01:15:25.528Z,1.85
2022-10-16T01:17:58.212Z,2.00
2022-10-16T01:20:31.628Z,1.90
2022-10-16T01:23:08.480Z,1.63
2022-10-16T01:25:58.232Z,1.92
2022-10-16T01:28:34.591Z,2.00
2022-10-16T01:31:05.512Z,1.90
2022-10-16T01:33:39.664Z,1.83
2022-10-16T01:36:13.259Z,2.00
2022-10-16T01:38:43.874Z,2.00
2022-10-16T01:41:14.799Z,2.08
2022-10-16T01:43:50.499Z,2.60
2022-10-16T01:46:22.205Z,2.58
2022-10-16T01:48:52.732Z,2.50
2022-10-16T01:51:23.542Z,2.53
2022-10-16T01:53:56.093Z,2.45
2022-10-16T01:56:26.800Z,2.40
2022-10-16T01:59:02.801Z,2.50
2022-10-16T02:01:35.665Z,2.25
2022-10-16T02:04:08.665Z,2.40
2022-10-16T02:06:38.302Z,2.30
2022-10-16T02:09:08.163Z,2.70
2022-10-16T02:11:38.791Z,2.42
2022-10-16T02:14:11.129Z,2.53
2022-10-16T02:16:43.016Z,2.70
2022-10-16T02:19:15.902Z,2.75
2022-10-16T02:21:48.385Z,2.78
2022-10-16T02:24:23.339Z,2.40
2022-10-16T02:26:56.447Z,2.28
2022-10-16T02:29:30.189Z,2.50
2022-10-16T02:32:02.366Z,2.00
2022-10-16T02:34:32.729Z,2.10
2022-10-16T02:37:02.859Z,2.30
2022-10-16T02:39:33.129Z,1.95
2022-10-16T02:42:03.007Z,2.20
2022-10-16T02:44:35.175Z,2.10
2022-10-16T02:47:04.751Z,2.13
2022-10-16T02:49:34.560Z,2.05
2022-10-16T02:52:04.257Z,2.07
2022-10-16T02:54:33.808Z,1.90
2022-10-16T02:57:03.331Z,2.10
2022-10-16T02:59:35.536Z,1.60
2022-10-16T03:02:05.116Z,1.88
2022-10-16T03:04:34.721Z,1.80
2022-10-16T03:07:04.408Z,2.00
2022-10-16T03:09:34.119Z,2.00
2022-10-16T03:12:03.848Z,1.80
2022-10-16T03:14:36.054Z,1.95
2022-10-16T03:17:05.602Z,1.65
2022-10-16T03:19:35.731Z,1.90
2022-10-16T03:22:05.353Z,1.92
2022-10-16T03:24:34.939Z,2.20
2022-10-16T03:27:04.543Z,2.00
2022-10-16T03:29:36.714Z,1.80
2022-10-16T03:32:06.732Z,1.90
2022-10-16T03:34:36.372Z,1.65
2022-10-16T03:37:06.053Z,1.80
2022-10-16T03:39:35.640Z,1.70
2022-10-16T03:42:05.166Z,2.10
2022-10-16T03:44:37.316Z,1.77
2022-10-16T03:47:06.892Z,1.80
2022-10-16T03:49:36.455Z,1.90
2022-10-16T03:52:06.246Z,1.90
2022-10-16T03:54:35.797Z,2.13
2022-10-16T03:57:05.377Z,1.90
2022-10-16T03:59:37.459Z,1.90
2022-10-16T04:02:07.043Z,2.20
2022-10-16T04:04:36.604Z,2.10
2022-10-16T04:07:06.160Z,1.42
2022-10-16T04:09:35.679Z,1.80
2022-10-16T04:12:05.259Z,1.65
2022-10-16T04:14:37.407Z,1.80
2022-10-16T04:17:06.995Z,1.77
2022-10-16T04:19:36.539Z,1.60
2022-10-16T04:22:06.126Z,1.85
2022-10-16T04:24:35.808Z,2.08
2022-10-16T04:27:05.463Z,1.87
2022-10-16T04:29:37.586Z,2.33
2022-10-16T04:32:07.175Z,1.80
2022-10-16T04:34:36.754Z,1.90
2022-10-16T04:37:06.286Z,2.00
2022-10-16T04:39:35.812Z,1.70
2022-10-16T04:42:05.451Z,1.73
2022-10-16T04:44:37.592Z,2.50
2022-10-16T04:47:07.661Z,1.58
2022-10-16T04:49:37.413Z,1.90
2022-10-16T04:52:07.608Z,1.90
2022-10-16T04:54:37.305Z,1.90
2022-10-16T04:57:07.137Z,1.98
2022-10-16T04:59:39.259Z,2.00
2022-10-16T05:02:08.804Z,1.80
2022-10-16T05:04:38.366Z,1.97
2022-10-16T05:07:07.866Z,1.90
2022-10-16T05:09:37.397Z,1.80
2022-10-16T05:12:07.167Z,1.67
2022-10-16T05:14:39.250Z,1.60
2022-10-16T05:17:08.877Z,1.80
2022-10-16T05:19:38.608Z,1.90
2022-10-16T05:22:08.277Z,2.00
2022-10-16T05:24:38.859Z,1.50
2022-10-16T05:27:08.389Z,1.95
2022-10-16T05:29:40.654Z,2.20
2022-10-16T05:32:10.169Z,1.90
2022-10-16T05:34:39.767Z,1.80
2022-10-16T05:37:09.352Z,2.10
2022-10-16T05:39:39.003Z,1.80
2022-10-16T05:42:08.911Z,2.30
2022-10-16T05:44:41.060Z,2.00
2022-10-16T05:47:11.716Z,2.08
2022-10-16T05:49:41.568Z,2.22
2022-10-16T05:52:11.234Z,2.50
2022-10-16T05:54:40.816Z,2.00
2022-10-16T05:57:10.432Z,2.30
2022-10-16T05:59:42.618Z,1.85
2022-10-16T06:02:14.146Z,2.47
2022-10-16T06:04:43.787Z,2.20
2022-10-16T06:07:13.358Z,2.20
2022-10-16T06:09:43.067Z,2.20
2022-10-16T06:12:12.612Z,2.30
2022-10-16T06:17:34.411Z,2.70
2022-10-16T06:20:03.960Z,2.30
2022-10-16T06:22:33.596Z,2.53
2022-10-16T06:25:03.273Z,2.30
2022-10-16T06:27:32.900Z,2.30
2022-10-16T06:30:05.034Z,2.40
2022-10-16T06:32:34.615Z,2.53
2022-10-16T06:35:04.180Z,2.30
2022-10-16T06:37:33.853Z,2.40
2022-10-16T06:40:05.311Z,2.93
2022-10-16T06:42:34.889Z,2.30
2022-10-16T06:45:07.451Z,2.30
2022-10-16T06:47:37.117Z,2.80
2022-10-16T06:50:07.818Z,2.42
2022-10-16T06:52:37.681Z,2.10
2022-10-16T06:55:08.238Z,2.30
2022-10-16T06:57:37.765Z,2.30
2022-10-16T07:00:11.625Z,2.20
2022-10-16T07:02:41.195Z,2.30
2022-10-16T07:05:11.360Z,2.50
2022-10-16T07:07:41.005Z,2.50
2022-10-16T07:10:11.736Z,2.20
2022-10-16T07:12:41.272Z,2.30
2022-10-16T07:15:13.889Z,2.40
2022-10-16T07:17:43.435Z,2.63
2022-10-16T07:20:13.844Z,2.30
2022-10-16T07:22:43.598Z,2.03
2022-10-16T07:25:13.655Z,2.20
2022-10-16T07:27:43.420Z,2.55
2022-10-16T07:30:15.810Z,2.30
2022-10-16T07:32:45.345Z,2.17
2022-10-16T07:35:14.891Z,2.00
2022-10-16T07:37:48.242Z,2.40
2022-10-16T07:40:17.997Z,2.50
2022-10-16T07:42:47.583Z,2.20
2022-10-16T07:45:19.801Z,2.00
2022-10-16T07:47:49.497Z,2.20
2022-10-16T07:50:19.043Z,2.00
2022-10-16T07:52:48.572Z,2.28
2022-10-16T07:55:18.173Z,2.38
2022-10-16T07:57:47.701Z,2.37
2022-10-16T08:00:20.115Z,2.15
2022-10-16T08:02:49.651Z,2.60
2022-10-16T08:05:19.262Z,2.55
2022-10-16T08:07:52.306Z,2.43
2022-10-16T08:10:23.632Z,2.40
2022-10-16T08:12:53.189Z,2.58
2022-10-16T08:15:25.377Z,2.80
2022-10-16T08:17:59.832Z,2.50
2022-10-16T08:20:30.039Z,2.50
2022-10-16T08:22:59.704Z,2.40
2022-10-16T08:25:30.267Z,2.20
2022-10-16T08:28:00.076Z,2.30
2022-10-16T08:30:32.169Z,2.30
2022-10-16T08:33:01.808Z,2.88
2022-10-16T08:35:31.799Z,2.10
2022-10-16T08:38:01.332Z,2.53
2022-10-16T08:40:34.357Z,2.15
2022-10-16T08:43:25.432Z,1.98
2022-10-16T08:46:13.013Z,1.88
2022-10-16T08:48:47.588Z,2.10
2022-10-16T08:51:23.485Z,1.85
2022-10-16T08:53:56.563Z,1.70
2022-10-16T08:56:26.443Z,1.83
2022-10-16T08:59:00.767Z,1.80
2022-10-16T09:01:40.584Z,1.80
2022-10-16T09:04:39.745Z,1.80
2022-10-16T09:07:13.688Z,2.03
2022-10-16T09:09:54.575Z,1.67
2022-10-16T09:12:28.379Z,1.40
2022-10-16T09:15:05.706Z,1.92
2022-10-16T09:17:45.361Z,1.60
2022-10-16T09:20:32.901Z,1.80
2022-10-16T09:23:14.274Z,1.80
2022-10-16T09:25:45.265Z,1.70
2022-10-16T09:28:15.144Z,1.73
2022-10-16T09:30:44.701Z,1.70
2022-10-16T09:33:17.679Z,1.70
2022-10-16T09:35:48.604Z,1.40
2022-10-16T09:38:26.712Z,1.40
2022-10-16T09:40:59.210Z,1.50
2022-10-16T09:43:38.268Z,1.42
2022-10-16T09:46:09.641Z,1.30
2022-10-16T09:48:47.420Z,1.50
2022-10-16T09:51:23.181Z,1.70
2022-10-16T09:56:42.818Z,1.37
2022-10-16T09:59:15.723Z,1.40
2022-10-16T10:01:49.157Z,1.30
2022-10-16T10:04:21.547Z,1.30
2022-10-16T10:06:52.685Z,1.40
2022-10-16T10:09:24.516Z,1.50
2022-10-16T10:11:56.459Z,1.50
2022-10-16T10:14:32.397Z,1.33
2022-10-16T10:17:16.840Z,1.40
2022-10-16T10:19:52.007Z,1.48
2022-10-16T10:22:26.518Z,1.03
2022-10-16T10:25:00.783Z,1.30
2022-10-16T10:27:36.787Z,1.00
2022-10-16T10:30:12.105Z,1.20
2022-10-16T10:32:47.899Z,1.20
2022-10-16T10:35:26.719Z,1.33
2022-10-16T10:38:07.847Z,1.20
2022-10-16T10:40:44.340Z,1.73
2022-10-16T10:43:22.462Z,1.38
2022-10-16T10:45:56.468Z,1.00
2022-10-16T10:48:51.193Z,1.10
2022-10-16T10:51:26.835Z,1.25
2022-10-16T10:53:59.940Z,1.20
2022-10-16T10:56:45.350Z,1.10
2022-10-16T10:59:40.721Z,1.40
2022-10-16T11:02:17.040Z,1.00
2022-10-16T11:05:20.463Z,1.20
2022-10-16T11:07:55.886Z,1.10
2022-10-16T11:10:27.411Z,1.15
2022-10-16T11:12:59.207Z,1.10
2022-10-16T11:15:32.207Z,1.00
2022-10-16T11:18:07.614Z,1.20
2022-10-16T11:20:39.007Z,1.00
2022-10-16T11:23:15.658Z,1.02
2022-10-16T11:25:47.030Z,1.30
2022-10-16T11:28:18.792Z,0.90
2022-10-16T11:30:51.374Z,1.00
2022-10-16T11:33:32.516Z,1.20
2022-10-16T11:36:08.336Z,1.42
2022-10-16T11:38:45.371Z,1.15
2022-10-16T11:41:22.255Z,1.00
2022-10-16T11:43:59.981Z,1.30
2022-10-16T11:46:30.259Z,1.10
2022-10-16T11:49:05.776Z,1.10
2022-10-16T11:51:39.352Z,1.30
2022-10-16T11:54:19.453Z,1.40
2022-10-16T11:56:50.678Z,0.90
2022-10-16T11:59:25.405Z,1.30
2022-10-16T12:01:57.869Z,1.00
2022-10-16T12:04:34.417Z,1.30
2022-10-16T12:07:07.943Z,1.00
2022-10-16T12:09:42.256Z,1.00
2022-10-16T12:12:30.268Z,0.93
2022-10-16T12:15:40.463Z,1.20
2022-10-16T12:17:57.231Z,1.25
2022-10-16T12:20:31.503Z,1.00
2022-10-16T12:23:03.406Z,1.10
2022-10-16T12:25:37.305Z,1.30
2022-10-16T12:28:08.981Z,1.08
2022-10-16T12:30:39.740Z,1.45
2022-10-16T12:33:20.176Z,1.20
2022-10-16T12:35:49.910Z,1.10
2022-10-16T12:38:21.464Z,0.80
2022-10-16T12:41:01.897Z,0.90
2022-10-16T12:43:43.717Z,1.00
2022-10-16T12:46:28.363Z,1.10
2022-10-16T12:49:09.883Z,1.40
2022-10-16T12:51:40.626Z,1.20
2022-10-16T12:54:17.822Z,1.17
2022-10-16T12:57:06.797Z,1.30
2022-10-16T12:59:43.310Z,1.00
2022-10-16T13:02:42.526Z,1.30
2022-10-16T13:05:26.615Z,1.00
2022-10-16T13:08:05.853Z,1.20
2022-10-16T13:10:39.998Z,0.90
2022-10-16T13:13:22.676Z,1.20
2022-10-16T13:16:03.730Z,1.20
2022-10-16T13:18:38.428Z,0.90
2022-10-16T13:21:16.708Z,1.00
2022-10-16T13:23:52.312Z,1.20
2022-10-16T13:26:30.207Z,0.95
2022-10-16T13:29:05.910Z,0.90
2022-10-16T13:31:36.177Z,1.27
2022-10-16T13:34:07.148Z,1.00
2022-10-16T13:36:39.681Z,1.00
2022-10-16T13:39:15.551Z,1.10
2022-10-16T13:41:45.266Z,1.10
2022-10-16T13:44:23.295Z,1.00
2022-10-16T13:47:03.282Z,1.10
2022-10-16T13:49:32.829Z,1.00
2022-10-16T13:52:03.545Z,0.90
2022-10-16T13:54:33.180Z,1.40
2022-10-16T13:57:26.179Z,1.30
2022-10-16T13:59:59.600Z,1.00
2022-10-16T14:02:31.194Z,1.00
2022-10-16T14:05:01.619Z,1.20
2022-10-16T14:07:33.114Z,1.20
2022-10-16T14:10:07.598Z,1.20
2022-10-16T14:12:38.078Z,1.02
2022-10-16T14:15:21.089Z,1.20
2022-10-16T14:17:54.140Z,1.30
2022-10-16T14:20:25.015Z,1.00
2022-10-16T14:23:02.871Z,1.10
2022-10-16T14:25:35.257Z,1.40
2022-10-16T14:28:07.897Z,1.40
2022-10-16T14:30:40.657Z,1.00
2022-10-16T14:33:24.817Z,1.20
2022-10-16T14:36:06.376Z,0.98
2022-10-16T14:38:36.614Z,1.00
2022-10-16T14:41:07.567Z,1.10
2022-10-16T14:43:38.872Z,1.60
2022-10-16T14:46:15.450Z,1.10
2022-10-16T14:48:45.505Z,1.30
2022-10-16T14:51:17.758Z,1.10
2022-10-16T14:53:47.372Z,1.92
2022-10-16T14:56:20.904Z,1.27
2022-10-16T14:58:50.713Z,1.60
2022-10-16T15:01:23.287Z,1.23
2022-10-16T15:03:53.549Z,1.10
2022-10-16T15:06:23.197Z,1.33
2022-10-16T15:08:52.899Z,1.58
2022-10-16T15:11:23.492Z,1.10
2022-10-16T15:13:53.087Z,1.60
2022-10-16T15:16:25.252Z,1.60
2022-10-16T15:18:54.792Z,1.20
2022-10-16T15:21:27.134Z,1.40
2022-10-16T15:23:57.609Z,1.30
2022-10-16T15:26:27.681Z,1.70
2022-10-16T15:28:57.468Z,2.00
2022-10-16T15:31:29.956Z,1.52
2022-10-16T15:34:04.776Z,1.40
2022-10-16T15:36:37.662Z,1.52
2022-10-16T15:39:07.797Z,1.77
2022-10-16T15:41:37.434Z,1.95
2022-10-16T15:44:07.081Z,2.70
2022-10-16T15:46:39.344Z,3.00
2022-10-16T15:49:09.076Z,1.88
2022-10-16T15:51:42.107Z,1.43
2022-10-16T15:54:12.294Z,1.70
2022-10-16T15:56:41.889Z,2.13
2022-10-16T15:59:11.423Z,1.60
2022-10-16T16:01:43.678Z,1.33
2022-10-16T16:04:31.849Z,1.40
2022-10-16T16:07:02.989Z,1.50
2022-10-16T16:09:33.052Z,1.95
2022-10-16T16:12:02.783Z,1.80
2022-10-16T16:14:32.471Z,1.40
2022-10-16T16:17:04.698Z,1.70
2022-10-16T16:19:34.507Z,1.60
2022-10-16T16:22:06.142Z,1.88
2022-10-16T16:24:39.001Z,1.50
2022-10-16T16:27:08.769Z,1.60
2022-10-16T16:29:38.740Z,1.70
2022-10-16T16:32:11.152Z,1.60
2022-10-16T16:34:40.768Z,2.60
2022-10-16T16:37:10.309Z,1.80
2022-10-16T16:39:39.894Z,2.30
2022-10-16T16:42:11.117Z,1.80
2022-10-16T16:44:40.749Z,2.03
2022-10-16T16:47:13.457Z,1.70
2022-10-16T16:49:44.017Z,1.80
2022-10-16T16:52:14.044Z,1.75
2022-10-16T16:54:45.083Z,1.70
2022-10-16T16:57:14.823Z,1.75
2022-10-16T16:59:44.460Z,2.20
2022-10-16T17:02:16.693Z,1.90
2022-10-16T17:04:46.343Z,2.03
2022-10-16T17:07:17.524Z,2.50
2022-10-16T17:09:48.010Z,2.10
2022-10-16T17:12:17.602Z,2.00
2022-10-16T17:14:47.445Z,1.85
2022-10-16T17:17:19.600Z,2.08
2022-10-16T17:19:49.175Z,2.45
2022-10-16T17:22:18.899Z,1.80
2022-10-16T17:24:50.575Z,2.83
2022-10-16T17:27:20.180Z,2.10
2022-10-16T17:29:53.713Z,2.50
2022-10-16T17:32:26.426Z,2.47
2022-10-16T17:34:56.247Z,3.20
2022-10-16T17:37:25.777Z,2.92
2022-10-16T17:39:55.817Z,3.85
2022-10-16T17:42:25.637Z,3.47
2022-10-16T17:44:55.379Z,3.97
2022-10-16T17:47:27.545Z,4.00
2022-10-16T17:49:57.462Z,3.50
2022-10-16T17:52:27.399Z,3.60
2022-10-16T17:54:58.378Z,3.60
2022-10-16T17:57:28.001Z,3.70
2022-10-16T17:59:57.773Z,3.30
2022-10-16T18:02:30.284Z,2.70
2022-10-16T18:05:00.558Z,2.70
2022-10-16T18:07:30.141Z,2.65
2022-10-16T18:10:10.264Z,3.50
2022-10-16T18:12:41.183Z,3.37
2022-10-16T18:15:11.725Z,3.65
2022-10-16T18:17:44.343Z,3.10
2022-10-16T18:20:14.840Z,3.10
2022-10-16T18:22:44.864Z,3.45
2022-10-16T18:25:14.595Z,3.00
2022-10-16T18:27:44.139Z,3.07
2022-10-16T18:30:14.572Z,3.60
2022-10-16T18:32:46.958Z,3.40
2022-10-16T18:35:16.724Z,3.45
2022-10-16T18:37:46.248Z,4.45
2022-10-16T18:40:15.835Z,3.50
2022-10-16T18:42:45.357Z,3.72
2022-10-16T18:45:14.889Z,3.75
2022-10-16T18:47:47.036Z,4.15
2022-10-16T18:50:16.532Z,4.10
2022-10-16T18:52:50.492Z,3.47
2022-10-16T18:55:20.257Z,3.85
2022-10-16T18:57:49.951Z,4.03
2022-10-16T19:00:19.709Z,3.80
2022-10-16T19:02:51.940Z,4.38
2022-10-16T19:05:21.623Z,3.75
2022-10-16T19:07:52.214Z,5.13
2022-10-16T19:10:21.767Z,4.75
2022-10-16T19:12:51.313Z,4.45
2022-10-16T19:15:22.211Z,4.40
2022-10-16T19:17:54.904Z,5.07
2022-10-16T19:20:24.456Z,4.80
2022-10-16T19:22:56.728Z,4.53
2022-10-16T19:25:28.035Z,4.80
2022-10-16T19:27:58.034Z,4.40
2022-10-16T19:30:27.625Z,4.70
2022-10-16T19:32:59.978Z,6.40
2022-10-16T19:35:29.552Z,7.10
2022-10-16T19:37:59.096Z,7.20
2022-10-16T19:40:28.675Z,5.82
2022-10-16T19:42:58.240Z,5.70
2022-10-16T19:45:27.977Z,6.45
2022-10-16T19:48:00.151Z,5.90
2022-10-16T19:50:29.687Z,5.60
2022-10-16T19:52:59.209Z,5.88
2022-10-16T19:55:28.749Z,6.80
2022-10-16T19:57:58.293Z,5.90
2022-10-16T20:00:27.915Z,5.70
2022-10-16T20:03:01.791Z,5.80
2022-10-16T20:05:31.368Z,5.20
2022-10-16T20:08:00.980Z,5.53
2022-10-16T20:10:30.630Z,5.80
2022-10-16T20:13:00.457Z,5.40
2022-10-16T20:15:29.987Z,5.30
2022-10-16T20:18:02.133Z,5.50
2022-10-16T20:20:31.682Z,6.20
2022-10-16T20:23:01.856Z,6.03
2022-10-16T20:28:23.198Z,6.40
2022-10-16T20:30:53.429Z,6.38
2022-10-16T20:33:25.581Z,6.38
2022-10-16T20:35:55.256Z,6.93
2022-10-16T20:38:26.260Z,6.53
2022-10-16T20:40:55.793Z,6.47
2022-10-16T20:43:25.311Z,6.85
2022-10-16T20:46:02.296Z,5.72
2022-10-16T20:48:34.679Z,6.20
2022-10-16T20:51:14.073Z,6.55
2022-10-16T20:53:43.936Z,6.30
2022-10-16T20:56:15.745Z,6.10
2022-10-16T20:58:45.359Z,5.03
2022-10-16T21:01:18.385Z,5.90
2022-10-16T21:03:53.052Z,5.85
2022-10-16T21:06:22.713Z,5.90
2022-10-16T21:08:52.612Z,5.60
2022-10-16T21:11:24.392Z,5.25
2022-10-16T21:13:55.122Z,4.70
2022-10-16T21:16:25.054Z,5.75
2022-10-16T21:18:57.730Z,4.50
2022-10-16T21:21:28.935Z,3.95
2022-10-16T21:23:59.414Z,8.25
2022-10-16T21:26:31.723Z,7.22
2022-10-16T21:29:02.972Z,6.80
2022-10-16T21:31:33.841Z,8.98
2022-10-16T21:34:06.245Z,8.10
2022-10-16T21:36:37.912Z,7.88
2022-10-16T21:39:10.180Z,7.35
2022-10-16T21:41:40.197Z,7.05
2022-10-16T21:44:10.351Z,7.13
2022-10-16T21:46:42.014Z,6.95
2022-10-16T21:49:17.591Z,6.35
2022-10-16T21:51:49.330Z,6.93
2022-10-16T21:54:20.611Z,6.30
2022-10-16T21:56:50.438Z,6.10
2022-10-16T21:59:20.083Z,5.95
2022-10-16T22:01:50.086Z,5.95
2022-10-16T22:04:22.392Z,5.72
2022-10-16T22:06:51.979Z,5.53
2022-10-16T22:09:21.586Z,5.40
2022-10-16T22:11:51.155Z,5.85
2022-10-16T22:14:23.204Z,5.00
2022-10-16T22:16:53.240Z,4.63
2022-10-16T22:19:25.727Z,5.88
2022-10-16T22:21:57.349Z,5.37
2022-10-16T22:24:27.297Z,4.90
2022-10-16T22:26:57.019Z,5.40
2022-10-16T22:29:26.579Z,5.30
2022-10-16T22:31:56.451Z,5.57
2022-10-16T22:34:29.624Z,5.63
2022-10-16T22:36:59.216Z,5.88
2022-10-16T22:39:28.818Z,5.32
2022-10-16T22:41:58.334Z,5.68
2022-10-16T22:44:28.870Z,6.55
2022-10-16T22:46:58.638Z,5.80
2022-10-16T22:49:30.932Z,6.00
2022-10-16T22:52:00.472Z,5.30
2022-10-16T22:54:30.019Z,6.22
2022-10-16T22:56:59.601Z,6.53
2022-10-16T22:59:29.141Z,6.50
2022-10-16T23:01:58.803Z,7.60
2022-10-16T23:04:30.986Z,7.55
2022-10-16T23:07:00.621Z,7.38
2022-10-16T23:09:30.197Z,7.60
2022-10-16T23:11:59.874Z,7.55
2022-10-16T23:14:29.469Z,8.02
2022-10-16T23:16:58.967Z,7.40
2022-10-16T23:19:31.313Z,7.53
2022-10-16T23:22:00.898Z,7.30
2022-10-16T23:24:30.415Z,8.07
2022-10-16T23:26:59.955Z,7.78
2022-10-16T23:29:29.531Z,7.23
2022-10-16T23:31:59.376Z,8.02
2022-10-16T23:34:31.951Z,7.82
2022-10-16T23:37:03.696Z,7.32
2022-10-16T23:39:33.568Z,7.10
2022-10-16T23:42:03.140Z,7.90
2022-10-16T23:44:32.814Z,7.30
2022-10-16T23:47:02.667Z,7.37
2022-10-16T23:49:34.815Z,7.32
2022-10-16T23:52:04.398Z,6.90
2022-10-16T23:54:33.943Z,7.28
2022-10-16T23:57:03.513Z,6.78
2022-10-16T23:59:33.067Z,6.22
